sensor_id;sensor_type;location;lat;lon;timestamp;P1;durP1;ratioP1;P2;durP2;ratioP2
37641;SDS011;23486;51.956;5.888;2023-09-07T00:01:29;3.47;;;1.95;;
37641;SDS011;23486;51.956;5.888;2023-09-07T00:03:54;3.33;;;1.55;;
37641;SDS011;23486;51.956;5.888;2023-09-07T00:06:20;3.85;;;1.38;;
37641;SDS011;23486;51.956;5.888;2023-09-07T00:08:46;4.93;;;1.80;;
37641;SDS011;23486;51.956;5.888;2023-09-07T00:11:11;4.22;;;1.73;;
37641;SDS011;23486;51.956;5.888;2023-09-07T00:13:37;3.80;;;1.80;;
37641;SDS011;23486;51.956;5.888;2023-09-07T00:16:03;3.80;;;2.10;;
37641;SDS011;23486;51.956;5.888;2023-09-07T00:18:30;4.53;;;1.88;;
37641;SDS011;23486;51.956;5.888;2023-09-07T00:20:56;4.25;;;1.40;;
37641;SDS011;23486;51.956;5.888;2023-09-07T00:23:22;3.35;;;1.70;;
37641;SDS011;23486;51.956;5.888;2023-09-07T00:25:47;3.75;;;1.63;;
37641;SDS011;23486;51.956;5.888;2023-09-07T00:28:13;3.78;;;2.15;;
37641;SDS011;23486;51.956;5.888;2023-09-07T00:30:39;3.25;;;1.67;;
37641;SDS011;23486;51.956;5.888;2023-09-07T00:33:05;2.95;;;1.45;;
37641;SDS011;23486;51.956;5.888;2023-09-07T00:35:33;2.60;;;1.48;;
37641;SDS011;23486;51.956;5.888;2023-09-07T00:38:04;4.38;;;1.80;;
37641;SDS011;23486;51.956;5.888;2023-09-07T00:40:30;3.50;;;1.95;;
37641;SDS011;23486;51.956;5.888;2023-09-07T00:42:56;3.22;;;1.83;;
37641;SDS011;23486;51.956;5.888;2023-09-07T00:45:23;3.38;;;1.63;;
37641;SDS011;23486;51.956;5.888;2023-09-07T00:47:49;4.20;;;1.58;;
37641;SDS011;23486;51.956;5.888;2023-09-07T00:50:15;3.08;;;1.42;;
37641;SDS011;23486;51.956;5.888;2023-09-07T00:52:44;3.38;;;1.95;;
37641;SDS011;23486;51.956;5.888;2023-09-07T00:55:15;3.83;;;2.08;;
37641;SDS011;23486;51.956;5.888;2023-09-07T00:57:41;3.70;;;1.65;;
37641;SDS011;23486;51.956;5.888;2023-09-07T01:00:07;5.40;;;1.92;;
37641;SDS011;23486;51.956;5.888;2023-09-07T01:02:34;3.53;;;1.80;;
37641;SDS011;23486;51.956;5.888;2023-09-07T01:05:01;4.55;;;2.40;;
37641;SDS011;23486;51.956;5.888;2023-09-07T01:07:35;3.88;;;1.90;;
37641;SDS011;23486;51.956;5.888;2023-09-07T01:10:08;3.92;;;2.28;;
37641;SDS011;23486;51.956;5.888;2023-09-07T01:12:33;3.38;;;2.15;;
37641;SDS011;23486;51.956;5.888;2023-09-07T01:14:59;3.92;;;2.30;;
37641;SDS011;23486;51.956;5.888;2023-09-07T01:17:28;3.72;;;2.17;;
37641;SDS011;23486;51.956;5.888;2023-09-07T01:19:54;4.22;;;2.25;;
37641;SDS011;23486;51.956;5.888;2023-09-07T01:22:24;3.92;;;2.20;;
37641;SDS011;23486;51.956;5.888;2023-09-07T01:24:50;3.78;;;2.38;;
37641;SDS011;23486;51.956;5.888;2023-09-07T01:27:17;4.75;;;2.75;;
37641;SDS011;23486;51.956;5.888;2023-09-07T01:29:43;4.07;;;2.67;;
37641;SDS011;23486;51.956;5.888;2023-09-07T01:32:09;5.13;;;2.35;;
37641;SDS011;23486;51.956;5.888;2023-09-07T01:34:38;5.25;;;3.35;;
37641;SDS011;23486;51.956;5.888;2023-09-07T01:37:05;5.65;;;2.83;;
37641;SDS011;23486;51.956;5.888;2023-09-07T01:39:30;5.47;;;3.15;;
37641;SDS011;23486;51.956;5.888;2023-09-07T01:41:56;4.30;;;2.78;;
37641;SDS011;23486;51.956;5.888;2023-09-07T01:44:22;4.68;;;2.67;;
37641;SDS011;23486;51.956;5.888;2023-09-07T01:46:47;4.32;;;2.22;;
37641;SDS011;23486;51.956;5.888;2023-09-07T01:49:13;4.00;;;2.83;;
37641;SDS011;23486;51.956;5.888;2023-09-07T01:51:38;6.07;;;2.50;;
37641;SDS011;23486;51.956;5.888;2023-09-07T01:54:04;4.68;;;2.97;;
37641;SDS011;23486;51.956;5.888;2023-09-07T01:56:30;4.55;;;3.05;;
37641;SDS011;23486;51.956;5.888;2023-09-07T01:58:56;3.63;;;2.40;;
37641;SDS011;23486;51.956;5.888;2023-09-07T02:01:26;4.45;;;2.50;;
37641;SDS011;23486;51.956;5.888;2023-09-07T02:03:58;5.38;;;2.92;;
37641;SDS011;23486;51.956;5.888;2023-09-07T02:06:24;5.45;;;3.13;;
37641;SDS011;23486;51.956;5.888;2023-09-07T02:08:49;4.28;;;2.95;;
37641;SDS011;23486;51.956;5.888;2023-09-07T02:11:15;4.13;;;3.15;;
37641;SDS011;23486;51.956;5.888;2023-09-07T02:13:45;4.97;;;3.22;;
37641;SDS011;23486;51.956;5.888;2023-09-07T02:16:11;7.45;;;3.45;;
37641;SDS011;23486;51.956;5.888;2023-09-07T02:18:41;5.70;;;3.22;;
37641;SDS011;23486;51.956;5.888;2023-09-07T02:21:08;4.95;;;3.33;;
37641;SDS011;23486;51.956;5.888;2023-09-07T02:23:34;3.78;;;2.65;;
37641;SDS011;23486;51.956;5.888;2023-09-07T02:26:01;6.20;;;2.90;;
37641;SDS011;23486;51.956;5.888;2023-09-07T02:28:27;5.72;;;3.65;;
37641;SDS011;23486;51.956;5.888;2023-09-07T02:30:53;4.07;;;3.00;;
37641;SDS011;23486;51.956;5.888;2023-09-07T02:33:19;5.80;;;2.83;;
37641;SDS011;23486;51.956;5.888;2023-09-07T02:35:48;5.45;;;3.20;;
37641;SDS011;23486;51.956;5.888;2023-09-07T02:38:14;4.43;;;2.70;;
37641;SDS011;23486;51.956;5.888;2023-09-07T02:40:43;5.68;;;3.92;;
37641;SDS011;23486;51.956;5.888;2023-09-07T02:43:12;7.20;;;3.60;;
37641;SDS011;23486;51.956;5.888;2023-09-07T02:45:37;4.40;;;3.03;;
37641;SDS011;23486;51.956;5.888;2023-09-07T02:48:03;4.32;;;2.90;;
37641;SDS011;23486;51.956;5.888;2023-09-07T02:50:32;4.82;;;3.10;;
37641;SDS011;23486;51.956;5.888;2023-09-07T02:52:59;4.10;;;2.95;;
37641;SDS011;23486;51.956;5.888;2023-09-07T02:55:26;6.20;;;3.20;;
37641;SDS011;23486;51.956;5.888;2023-09-07T02:57:52;4.88;;;3.08;;
37641;SDS011;23486;51.956;5.888;2023-09-07T03:00:18;5.80;;;2.92;;
37641;SDS011;23486;51.956;5.888;2023-09-07T03:02:44;5.05;;;3.88;;
37641;SDS011;23486;51.956;5.888;2023-09-07T03:05:10;5.03;;;3.38;;
37641;SDS011;23486;51.956;5.888;2023-09-07T03:07:35;4.63;;;3.00;;
37641;SDS011;23486;51.956;5.888;2023-09-07T03:10:01;5.18;;;3.03;;
37641;SDS011;23486;51.956;5.888;2023-09-07T03:12:30;6.50;;;3.78;;
37641;SDS011;23486;51.956;5.888;2023-09-07T03:14:55;4.90;;;3.35;;
37641;SDS011;23486;51.956;5.888;2023-09-07T03:17:21;4.82;;;3.35;;
37641;SDS011;23486;51.956;5.888;2023-09-07T03:19:53;5.38;;;3.58;;
37641;SDS011;23486;51.956;5.888;2023-09-07T03:22:18;6.20;;;3.47;;
37641;SDS011;23486;51.956;5.888;2023-09-07T03:24:44;5.97;;;3.15;;
37641;SDS011;23486;51.956;5.888;2023-09-07T03:27:10;4.55;;;3.08;;
37641;SDS011;23486;51.956;5.888;2023-09-07T03:29:36;5.38;;;3.85;;
37641;SDS011;23486;51.956;5.888;2023-09-07T03:32:02;6.35;;;4.10;;
37641;SDS011;23486;51.956;5.888;2023-09-07T03:34:28;12.48;;;3.38;;
37641;SDS011;23486;51.956;5.888;2023-09-07T03:36:53;5.47;;;3.38;;
37641;SDS011;23486;51.956;5.888;2023-09-07T03:39:19;4.85;;;3.42;;
37641;SDS011;23486;51.956;5.888;2023-09-07T03:41:47;5.57;;;3.47;;
37641;SDS011;23486;51.956;5.888;2023-09-07T03:44:13;6.10;;;3.90;;
37641;SDS011;23486;51.956;5.888;2023-09-07T03:46:38;4.68;;;3.33;;
37641;SDS011;23486;51.956;5.888;2023-09-07T03:49:04;4.30;;;3.28;;
37641;SDS011;23486;51.956;5.888;2023-09-07T03:51:30;5.80;;;3.53;;
37641;SDS011;23486;51.956;5.888;2023-09-07T03:53:55;4.53;;;3.60;;
37641;SDS011;23486;51.956;5.888;2023-09-07T03:56:21;5.82;;;3.10;;
37641;SDS011;23486;51.956;5.888;2023-09-07T03:58:47;5.60;;;3.72;;
37641;SDS011;23486;51.956;5.888;2023-09-07T04:01:13;5.70;;;3.30;;
37641;SDS011;23486;51.956;5.888;2023-09-07T04:03:39;5.28;;;3.38;;
37641;SDS011;23486;51.956;5.888;2023-09-07T04:06:08;5.00;;;3.08;;
37641;SDS011;23486;51.956;5.888;2023-09-07T04:08:33;6.18;;;3.60;;
37641;SDS011;23486;51.956;5.888;2023-09-07T04:11:06;5.00;;;3.83;;
37641;SDS011;23486;51.956;5.888;2023-09-07T04:13:32;4.85;;;3.13;;
37641;SDS011;23486;51.956;5.888;2023-09-07T04:15:58;5.05;;;3.85;;
37641;SDS011;23486;51.956;5.888;2023-09-07T04:18:23;4.05;;;3.10;;
37641;SDS011;23486;51.956;5.888;2023-09-07T04:20:49;5.22;;;3.42;;
37641;SDS011;23486;51.956;5.888;2023-09-07T04:23:14;5.70;;;3.90;;
37641;SDS011;23486;51.956;5.888;2023-09-07T04:25:43;4.95;;;3.50;;
37641;SDS011;23486;51.956;5.888;2023-09-07T04:28:09;4.60;;;3.65;;
37641;SDS011;23486;51.956;5.888;2023-09-07T04:30:38;4.43;;;3.28;;
37641;SDS011;23486;51.956;5.888;2023-09-07T04:33:04;4.53;;;3.53;;
37641;SDS011;23486;51.956;5.888;2023-09-07T04:35:30;5.00;;;3.40;;
37641;SDS011;23486;51.956;5.888;2023-09-07T04:37:57;5.30;;;4.47;;
37641;SDS011;23486;51.956;5.888;2023-09-07T04:40:23;5.93;;;4.35;;
37641;SDS011;23486;51.956;5.888;2023-09-07T04:42:49;5.32;;;3.72;;
37641;SDS011;23486;51.956;5.888;2023-09-07T04:45:15;5.32;;;3.90;;
37641;SDS011;23486;51.956;5.888;2023-09-07T04:47:40;5.72;;;3.67;;
37641;SDS011;23486;51.956;5.888;2023-09-07T04:50:06;7.30;;;4.40;;
37641;SDS011;23486;51.956;5.888;2023-09-07T04:52:32;6.40;;;4.55;;
37641;SDS011;23486;51.956;5.888;2023-09-07T04:54:59;7.13;;;4.18;;
37641;SDS011;23486;51.956;5.888;2023-09-07T04:57:25;5.50;;;3.80;;
37641;SDS011;23486;51.956;5.888;2023-09-07T04:59:51;8.00;;;3.88;;
37641;SDS011;23486;51.956;5.888;2023-09-07T05:02:16;5.20;;;3.92;;
37641;SDS011;23486;51.956;5.888;2023-09-07T05:04:42;5.60;;;4.40;;
37641;SDS011;23486;51.956;5.888;2023-09-07T05:07:07;6.90;;;4.72;;
37641;SDS011;23486;51.956;5.888;2023-09-07T05:09:33;7.03;;;4.88;;
37641;SDS011;23486;51.956;5.888;2023-09-07T05:11:59;6.13;;;4.78;;
37641;SDS011;23486;51.956;5.888;2023-09-07T05:14:25;7.20;;;5.15;;
37641;SDS011;23486;51.956;5.888;2023-09-07T05:16:50;6.40;;;4.65;;
37641;SDS011;23486;51.956;5.888;2023-09-07T05:19:16;7.13;;;5.00;;
37641;SDS011;23486;51.956;5.888;2023-09-07T05:21:42;6.32;;;5.20;;
37641;SDS011;23486;51.956;5.888;2023-09-07T05:24:07;7.50;;;4.85;;
37641;SDS011;23486;51.956;5.888;2023-09-07T05:26:33;10.07;;;5.45;;
37641;SDS011;23486;51.956;5.888;2023-09-07T05:28:59;8.63;;;5.28;;
37641;SDS011;23486;51.956;5.888;2023-09-07T05:31:24;6.80;;;5.68;;
37641;SDS011;23486;51.956;5.888;2023-09-07T05:33:50;6.22;;;4.70;;
37641;SDS011;23486;51.956;5.888;2023-09-07T05:36:17;6.43;;;5.10;;
37641;SDS011;23486;51.956;5.888;2023-09-07T05:38:42;8.20;;;5.35;;
37641;SDS011;23486;51.956;5.888;2023-09-07T05:41:08;5.93;;;4.85;;
37641;SDS011;23486;51.956;5.888;2023-09-07T05:43:34;6.88;;;5.43;;
37641;SDS011;23486;51.956;5.888;2023-09-07T05:45:59;6.35;;;4.93;;
37641;SDS011;23486;51.956;5.888;2023-09-07T05:48:28;6.07;;;5.00;;
37641;SDS011;23486;51.956;5.888;2023-09-07T05:50:54;8.15;;;5.45;;
37641;SDS011;23486;51.956;5.888;2023-09-07T05:53:19;8.07;;;5.50;;
37641;SDS011;23486;51.956;5.888;2023-09-07T05:55:45;6.70;;;5.57;;
37641;SDS011;23486;51.956;5.888;2023-09-07T05:58:12;6.13;;;4.75;;
37641;SDS011;23486;51.956;5.888;2023-09-07T06:00:37;5.88;;;4.72;;
37641;SDS011;23486;51.956;5.888;2023-09-07T06:03:04;6.57;;;5.28;;
37641;SDS011;23486;51.956;5.888;2023-09-07T06:05:32;6.78;;;5.00;;
37641;SDS011;23486;51.956;5.888;2023-09-07T06:07:59;5.78;;;5.13;;
37641;SDS011;23486;51.956;5.888;2023-09-07T06:10:25;8.57;;;5.32;;
37641;SDS011;23486;51.956;5.888;2023-09-07T06:12:54;8.48;;;5.15;;
37641;SDS011;23486;51.956;5.888;2023-09-07T06:15:19;11.60;;;4.72;;
37641;SDS011;23486;51.956;5.888;2023-09-07T06:17:45;7.68;;;5.65;;
37641;SDS011;23486;51.956;5.888;2023-09-07T06:20:11;5.63;;;4.75;;
37641;SDS011;23486;51.956;5.888;2023-09-07T06:22:36;7.15;;;4.72;;
37641;SDS011;23486;51.956;5.888;2023-09-07T06:25:02;6.90;;;4.70;;
37641;SDS011;23486;51.956;5.888;2023-09-07T06:27:28;5.43;;;4.50;;
37641;SDS011;23486;51.956;5.888;2023-09-07T06:29:53;7.20;;;6.13;;
37641;SDS011;23486;51.956;5.888;2023-09-07T06:32:19;8.20;;;5.93;;
37641;SDS011;23486;51.956;5.888;2023-09-07T06:34:44;7.70;;;5.40;;
37641;SDS011;23486;51.956;5.888;2023-09-07T06:37:11;6.93;;;5.50;;
37641;SDS011;23486;51.956;5.888;2023-09-07T06:39:36;7.10;;;5.03;;
37641;SDS011;23486;51.956;5.888;2023-09-07T06:42:08;7.55;;;5.50;;
37641;SDS011;23486;51.956;5.888;2023-09-07T06:44:37;6.82;;;5.13;;
37641;SDS011;23486;51.956;5.888;2023-09-07T06:47:02;7.43;;;4.85;;
37641;SDS011;23486;51.956;5.888;2023-09-07T06:49:28;7.82;;;6.63;;
37641;SDS011;23486;51.956;5.888;2023-09-07T06:51:55;8.30;;;5.45;;
37641;SDS011;23486;51.956;5.888;2023-09-07T06:54:21;8.10;;;5.55;;
37641;SDS011;23486;51.956;5.888;2023-09-07T06:56:46;7.45;;;6.00;;
37641;SDS011;23486;51.956;5.888;2023-09-07T06:59:12;7.07;;;5.80;;
37641;SDS011;23486;51.956;5.888;2023-09-07T07:01:39;7.13;;;5.45;;
37641;SDS011;23486;51.956;5.888;2023-09-07T07:04:04;6.93;;;4.60;;
37641;SDS011;23486;51.956;5.888;2023-09-07T07:06:30;6.28;;;4.72;;
37641;SDS011;23486;51.956;5.888;2023-09-07T07:08:55;6.72;;;5.65;;
37641;SDS011;23486;51.956;5.888;2023-09-07T07:11:21;10.18;;;6.25;;
37641;SDS011;23486;51.956;5.888;2023-09-07T07:13:46;6.72;;;5.32;;
37641;SDS011;23486;51.956;5.888;2023-09-07T07:16:12;7.40;;;5.50;;
37641;SDS011;23486;51.956;5.888;2023-09-07T07:18:38;8.10;;;5.20;;
37641;SDS011;23486;51.956;5.888;2023-09-07T07:21:04;7.32;;;4.85;;
37641;SDS011;23486;51.956;5.888;2023-09-07T07:23:30;6.70;;;5.13;;
37641;SDS011;23486;51.956;5.888;2023-09-07T07:25:56;12.10;;;5.90;;
37641;SDS011;23486;51.956;5.888;2023-09-07T07:28:22;7.50;;;5.15;;
37641;SDS011;23486;51.956;5.888;2023-09-07T07:30:48;7.80;;;5.03;;
37641;SDS011;23486;51.956;5.888;2023-09-07T07:33:13;6.68;;;4.70;;
37641;SDS011;23486;51.956;5.888;2023-09-07T07:35:39;5.97;;;4.40;;
37641;SDS011;23486;51.956;5.888;2023-09-07T07:38:04;5.10;;;4.43;;
37641;SDS011;23486;51.956;5.888;2023-09-07T07:40:31;4.78;;;3.55;;
37641;SDS011;23486;51.956;5.888;2023-09-07T07:42:56;5.30;;;4.07;;
37641;SDS011;23486;51.956;5.888;2023-09-07T07:45:22;5.40;;;3.90;;
37641;SDS011;23486;51.956;5.888;2023-09-07T07:47:48;8.40;;;4.70;;
37641;SDS011;23486;51.956;5.888;2023-09-07T07:50:14;5.90;;;4.53;;
37641;SDS011;23486;51.956;5.888;2023-09-07T07:52:40;4.63;;;3.88;;
37641;SDS011;23486;51.956;5.888;2023-09-07T07:55:06;6.20;;;4.15;;
37641;SDS011;23486;51.956;5.888;2023-09-07T07:57:33;8.70;;;5.32;;
37641;SDS011;23486;51.956;5.888;2023-09-07T07:59:58;7.25;;;4.18;;
37641;SDS011;23486;51.956;5.888;2023-09-07T08:02:24;6.32;;;4.03;;
37641;SDS011;23486;51.956;5.888;2023-09-07T08:04:49;5.60;;;4.43;;
37641;SDS011;23486;51.956;5.888;2023-09-07T08:07:16;5.40;;;4.05;;
37641;SDS011;23486;51.956;5.888;2023-09-07T08:09:41;8.55;;;4.40;;
37641;SDS011;23486;51.956;5.888;2023-09-07T08:12:07;5.60;;;3.88;;
37641;SDS011;23486;51.956;5.888;2023-09-07T08:14:32;4.80;;;3.95;;
37641;SDS011;23486;51.956;5.888;2023-09-07T08:16:58;6.78;;;3.97;;
37641;SDS011;23486;51.956;5.888;2023-09-07T08:19:24;6.70;;;4.95;;
37641;SDS011;23486;51.956;5.888;2023-09-07T08:21:54;4.93;;;3.38;;
37641;SDS011;23486;51.956;5.888;2023-09-07T08:24:20;6.13;;;4.30;;
37641;SDS011;23486;51.956;5.888;2023-09-07T08:26:45;6.18;;;4.55;;
37641;SDS011;23486;51.956;5.888;2023-09-07T08:29:15;5.35;;;4.53;;
37641;SDS011;23486;51.956;5.888;2023-09-07T08:31:41;4.93;;;3.92;;
37641;SDS011;23486;51.956;5.888;2023-09-07T08:34:07;5.88;;;4.38;;
37641;SDS011;23486;51.956;5.888;2023-09-07T08:36:36;5.50;;;4.03;;
37641;SDS011;23486;51.956;5.888;2023-09-07T08:39:05;6.55;;;4.35;;
37641;SDS011;23486;51.956;5.888;2023-09-07T08:41:39;6.50;;;4.03;;
37641;SDS011;23486;51.956;5.888;2023-09-07T08:44:18;6.15;;;4.53;;
37641;SDS011;23486;51.956;5.888;2023-09-07T08:46:49;5.68;;;5.00;;
37641;SDS011;23486;51.956;5.888;2023-09-07T08:49:14;5.70;;;4.20;;
37641;SDS011;23486;51.956;5.888;2023-09-07T08:51:44;8.70;;;5.10;;
37641;SDS011;23486;51.956;5.888;2023-09-07T08:54:10;6.70;;;4.93;;
37641;SDS011;23486;51.956;5.888;2023-09-07T08:56:37;6.50;;;5.72;;
37641;SDS011;23486;51.956;5.888;2023-09-07T08:59:03;6.85;;;5.55;;
37641;SDS011;23486;51.956;5.888;2023-09-07T09:01:29;5.32;;;4.57;;
37641;SDS011;23486;51.956;5.888;2023-09-07T09:03:56;7.15;;;5.68;;
37641;SDS011;23486;51.956;5.888;2023-09-07T09:06:23;5.60;;;4.38;;
37641;SDS011;23486;51.956;5.888;2023-09-07T09:08:49;5.28;;;3.95;;
37641;SDS011;23486;51.956;5.888;2023-09-07T09:11:16;6.95;;;3.28;;
37641;SDS011;23486;51.956;5.888;2023-09-07T09:13:43;4.50;;;2.50;;
37641;SDS011;23486;51.956;5.888;2023-09-07T09:16:09;5.40;;;3.17;;
37641;SDS011;23486;51.956;5.888;2023-09-07T09:18:35;4.43;;;2.38;;
37641;SDS011;23486;51.956;5.888;2023-09-07T09:21:01;3.75;;;2.40;;
37641;SDS011;23486;51.956;5.888;2023-09-07T09:23:33;5.50;;;2.97;;
37641;SDS011;23486;51.956;5.888;2023-09-07T09:26:03;4.70;;;3.03;;
37641;SDS011;23486;51.956;5.888;2023-09-07T09:28:31;3.60;;;2.10;;
37641;SDS011;23486;51.956;5.888;2023-09-07T09:31:03;3.70;;;2.17;;
37641;SDS011;23486;51.956;5.888;2023-09-07T09:33:31;3.50;;;1.90;;
37641;SDS011;23486;51.956;5.888;2023-09-07T09:35:58;4.13;;;2.72;;
37641;SDS011;23486;51.956;5.888;2023-09-07T09:38:24;4.72;;;2.72;;
37641;SDS011;23486;51.956;5.888;2023-09-07T09:40:51;4.43;;;1.98;;
37641;SDS011;23486;51.956;5.888;2023-09-07T09:43:18;4.82;;;2.28;;
37641;SDS011;23486;51.956;5.888;2023-09-07T09:45:45;4.40;;;2.85;;
37641;SDS011;23486;51.956;5.888;2023-09-07T09:48:11;6.05;;;3.00;;
37641;SDS011;23486;51.956;5.888;2023-09-07T09:50:38;5.70;;;2.30;;
37641;SDS011;23486;51.956;5.888;2023-09-07T09:53:05;4.43;;;2.65;;
37641;SDS011;23486;51.956;5.888;2023-09-07T09:55:34;4.10;;;1.90;;
37641;SDS011;23486;51.956;5.888;2023-09-07T09:58:00;3.47;;;2.13;;
37641;SDS011;23486;51.956;5.888;2023-09-07T10:00:26;2.92;;;1.70;;
37641;SDS011;23486;51.956;5.888;2023-09-07T10:03:12;4.05;;;1.80;;
37641;SDS011;23486;51.956;5.888;2023-09-07T10:05:48;3.83;;;1.85;;
37641;SDS011;23486;51.956;5.888;2023-09-07T10:08:17;4.03;;;1.58;;
37641;SDS011;23486;51.956;5.888;2023-09-07T10:10:47;2.63;;;1.60;;
37641;SDS011;23486;51.956;5.888;2023-09-07T10:13:14;3.50;;;1.63;;
37641;SDS011;23486;51.956;5.888;2023-09-07T10:15:40;5.13;;;2.58;;
37641;SDS011;23486;51.956;5.888;2023-09-07T10:18:08;2.90;;;1.40;;
37641;SDS011;23486;51.956;5.888;2023-09-07T10:20:51;4.53;;;1.60;;
37641;SDS011;23486;51.956;5.888;2023-09-07T10:23:18;2.80;;;1.30;;
37641;SDS011;23486;51.956;5.888;2023-09-07T10:25:50;4.10;;;1.80;;
37641;SDS011;23486;51.956;5.888;2023-09-07T10:28:25;5.50;;;1.63;;
37641;SDS011;23486;51.956;5.888;2023-09-07T10:30:58;3.28;;;1.30;;
37641;SDS011;23486;51.956;5.888;2023-09-07T10:33:25;6.28;;;1.90;;
37641;SDS011;23486;51.956;5.888;2023-09-07T10:35:51;5.07;;;1.65;;
37641;SDS011;23486;51.956;5.888;2023-09-07T10:38:17;3.30;;;1.58;;
37641;SDS011;23486;51.956;5.888;2023-09-07T10:40:46;3.97;;;2.50;;
37641;SDS011;23486;51.956;5.888;2023-09-07T10:43:12;3.83;;;1.98;;
37641;SDS011;23486;51.956;5.888;2023-09-07T10:45:38;4.22;;;1.75;;
37641;SDS011;23486;51.956;5.888;2023-09-07T10:48:05;3.28;;;1.73;;
37641;SDS011;23486;51.956;5.888;2023-09-07T10:50:41;4.13;;;1.70;;
37641;SDS011;23486;51.956;5.888;2023-09-07T10:53:11;4.50;;;2.03;;
37641;SDS011;23486;51.956;5.888;2023-09-07T10:55:39;3.78;;;2.05;;
37641;SDS011;23486;51.956;5.888;2023-09-07T10:58:06;3.10;;;1.42;;
37641;SDS011;23486;51.956;5.888;2023-09-07T11:00:32;3.95;;;1.58;;
37641;SDS011;23486;51.956;5.888;2023-09-07T11:02:58;3.05;;;1.83;;
37641;SDS011;23486;51.956;5.888;2023-09-07T11:05:25;2.58;;;1.35;;
37641;SDS011;23486;51.956;5.888;2023-09-07T11:07:51;3.95;;;1.38;;
37641;SDS011;23486;51.956;5.888;2023-09-07T11:10:17;2.58;;;0.98;;
37641;SDS011;23486;51.956;5.888;2023-09-07T11:12:43;2.97;;;1.20;;
37641;SDS011;23486;51.956;5.888;2023-09-07T11:15:08;3.97;;;1.67;;
37641;SDS011;23486;51.956;5.888;2023-09-07T11:17:38;2.70;;;1.23;;
37641;SDS011;23486;51.956;5.888;2023-09-07T11:20:05;3.90;;;1.63;;
37641;SDS011;23486;51.956;5.888;2023-09-07T11:22:32;2.72;;;1.25;;
37641;SDS011;23486;51.956;5.888;2023-09-07T11:25:01;3.65;;;1.73;;
37641;SDS011;23486;51.956;5.888;2023-09-07T11:27:31;2.95;;;1.30;;
37641;SDS011;23486;51.956;5.888;2023-09-07T11:29:57;3.55;;;1.52;;
37641;SDS011;23486;51.956;5.888;2023-09-07T11:32:23;2.53;;;1.17;;
37641;SDS011;23486;51.956;5.888;2023-09-07T11:34:52;2.15;;;0.90;;
37641;SDS011;23486;51.956;5.888;2023-09-07T11:37:22;2.22;;;1.05;;
37641;SDS011;23486;51.956;5.888;2023-09-07T11:39:49;4.10;;;1.40;;
37641;SDS011;23486;51.956;5.888;2023-09-07T11:42:14;5.30;;;1.20;;
37641;SDS011;23486;51.956;5.888;2023-09-07T11:44:40;3.40;;;1.10;;
37641;SDS011;23486;51.956;5.888;2023-09-07T11:47:06;4.05;;;1.33;;
37641;SDS011;23486;51.956;5.888;2023-09-07T11:49:32;4.25;;;1.42;;
37641;SDS011;23486;51.956;5.888;2023-09-07T11:51:58;2.40;;;0.98;;
37641;SDS011;23486;51.956;5.888;2023-09-07T11:54:24;3.95;;;1.25;;
37641;SDS011;23486;51.956;5.888;2023-09-07T11:56:49;6.05;;;1.15;;
37641;SDS011;23486;51.956;5.888;2023-09-07T11:59:15;2.60;;;1.10;;
37641;SDS011;23486;51.956;5.888;2023-09-07T12:01:42;4.75;;;1.15;;
37641;SDS011;23486;51.956;5.888;2023-09-07T12:04:08;2.67;;;1.40;;
37641;SDS011;23486;51.956;5.888;2023-09-07T12:06:34;2.33;;;1.30;;
37641;SDS011;23486;51.956;5.888;2023-09-07T12:09:04;2.25;;;0.98;;
37641;SDS011;23486;51.956;5.888;2023-09-07T12:11:34;2.50;;;1.00;;
37641;SDS011;23486;51.956;5.888;2023-09-07T12:14:00;2.70;;;1.45;;
37641;SDS011;23486;51.956;5.888;2023-09-07T12:16:26;2.80;;;1.30;;
37641;SDS011;23486;51.956;5.888;2023-09-07T12:18:52;2.15;;;1.02;;
37641;SDS011;23486;51.956;5.888;2023-09-07T12:21:19;2.17;;;1.00;;
37641;SDS011;23486;51.956;5.888;2023-09-07T12:23:44;2.80;;;1.10;;
37641;SDS011;23486;51.956;5.888;2023-09-07T12:26:11;2.45;;;1.30;;
37641;SDS011;23486;51.956;5.888;2023-09-07T12:28:37;2.35;;;0.88;;
37641;SDS011;23486;51.956;5.888;2023-09-07T12:31:03;2.05;;;0.90;;
37641;SDS011;23486;51.956;5.888;2023-09-07T12:33:30;2.58;;;1.13;;
37641;SDS011;23486;51.956;5.888;2023-09-07T12:35:55;2.72;;;1.42;;
37641;SDS011;23486;51.956;5.888;2023-09-07T12:38:21;3.65;;;1.27;;
37641;SDS011;23486;51.956;5.888;2023-09-07T12:40:52;2.92;;;0.90;;
37641;SDS011;23486;51.956;5.888;2023-09-07T12:43:18;2.30;;;1.08;;
37641;SDS011;23486;51.956;5.888;2023-09-07T12:45:43;3.53;;;1.17;;
37641;SDS011;23486;51.956;5.888;2023-09-07T12:48:11;2.90;;;1.10;;
37641;SDS011;23486;51.956;5.888;2023-09-07T12:50:37;3.03;;;1.40;;
37641;SDS011;23486;51.956;5.888;2023-09-07T12:53:02;3.78;;;1.20;;
37641;SDS011;23486;51.956;5.888;2023-09-07T12:55:28;3.20;;;1.52;;
37641;SDS011;23486;51.956;5.888;2023-09-07T12:57:55;3.75;;;1.13;;
37641;SDS011;23486;51.956;5.888;2023-09-07T13:00:20;2.25;;;1.17;;
37641;SDS011;23486;51.956;5.888;2023-09-07T13:02:46;2.45;;;1.15;;
37641;SDS011;23486;51.956;5.888;2023-09-07T13:05:12;2.33;;;1.02;;
37641;SDS011;23486;51.956;5.888;2023-09-07T13:07:37;2.80;;;1.10;;
37641;SDS011;23486;51.956;5.888;2023-09-07T13:10:04;3.85;;;1.42;;
37641;SDS011;23486;51.956;5.888;2023-09-07T13:12:33;3.67;;;1.10;;
37641;SDS011;23486;51.956;5.888;2023-09-07T13:14:58;2.47;;;1.20;;
37641;SDS011;23486;51.956;5.888;2023-09-07T13:17:24;2.35;;;1.00;;
37641;SDS011;23486;51.956;5.888;2023-09-07T13:19:50;2.55;;;1.20;;
37641;SDS011;23486;51.956;5.888;2023-09-07T13:22:16;2.92;;;1.63;;
37641;SDS011;23486;51.956;5.888;2023-09-07T13:24:42;3.33;;;1.40;;
37641;SDS011;23486;51.956;5.888;2023-09-07T13:27:08;3.03;;;1.30;;
37641;SDS011;23486;51.956;5.888;2023-09-07T13:29:35;2.80;;;1.33;;
37641;SDS011;23486;51.956;5.888;2023-09-07T13:32:01;3.80;;;1.20;;
37641;SDS011;23486;51.956;5.888;2023-09-07T13:34:26;3.22;;;1.45;;
37641;SDS011;23486;51.956;5.888;2023-09-07T13:36:52;2.28;;;1.27;;
37641;SDS011;23486;51.956;5.888;2023-09-07T13:39:18;2.78;;;1.55;;
37641;SDS011;23486;51.956;5.888;2023-09-07T13:41:45;2.97;;;1.17;;
37641;SDS011;23486;51.956;5.888;2023-09-07T13:44:14;3.00;;;1.40;;
37641;SDS011;23486;51.956;5.888;2023-09-07T13:46:40;4.30;;;1.05;;
37641;SDS011;23486;51.956;5.888;2023-09-07T13:49:05;2.72;;;1.20;;
37641;SDS011;23486;51.956;5.888;2023-09-07T13:51:31;2.97;;;1.25;;
37641;SDS011;23486;51.956;5.888;2023-09-07T13:54:03;2.80;;;1.60;;
37641;SDS011;23486;51.956;5.888;2023-09-07T13:56:32;2.53;;;1.13;;
37641;SDS011;23486;51.956;5.888;2023-09-07T13:58:58;3.85;;;1.45;;
37641;SDS011;23486;51.956;5.888;2023-09-07T14:01:24;3.08;;;1.60;;
37641;SDS011;23486;51.956;5.888;2023-09-07T14:03:52;4.88;;;1.42;;
37641;SDS011;23486;51.956;5.888;2023-09-07T14:06:18;3.03;;;1.27;;
37641;SDS011;23486;51.956;5.888;2023-09-07T14:08:47;3.53;;;1.10;;
37641;SDS011;23486;51.956;5.888;2023-09-07T14:11:13;2.95;;;1.30;;
37641;SDS011;23486;51.956;5.888;2023-09-07T14:13:39;2.58;;;1.33;;
37641;SDS011;23486;51.956;5.888;2023-09-07T14:16:04;2.83;;;1.55;;
37641;SDS011;23486;51.956;5.888;2023-09-07T14:18:30;2.50;;;1.40;;
37641;SDS011;23486;51.956;5.888;2023-09-07T14:20:56;3.05;;;1.30;;
37641;SDS011;23486;51.956;5.888;2023-09-07T14:23:23;3.33;;;1.75;;
37641;SDS011;23486;51.956;5.888;2023-09-07T14:25:51;3.25;;;1.70;;
37641;SDS011;23486;51.956;5.888;2023-09-07T14:28:17;5.38;;;1.98;;
37641;SDS011;23486;51.956;5.888;2023-09-07T14:30:42;4.38;;;1.67;;
37641;SDS011;23486;51.956;5.888;2023-09-07T14:33:08;3.63;;;1.20;;
37641;SDS011;23486;51.956;5.888;2023-09-07T14:35:33;3.50;;;1.35;;
37641;SDS011;23486;51.956;5.888;2023-09-07T14:37:59;4.10;;;1.70;;
37641;SDS011;23486;51.956;5.888;2023-09-07T14:40:25;3.13;;;1.70;;
37641;SDS011;23486;51.956;5.888;2023-09-07T14:42:51;3.60;;;1.58;;
37641;SDS011;23486;51.956;5.888;2023-09-07T14:45:19;3.63;;;1.40;;